sensor_id;sensor_type;location;lat;lon;timestamp;temperature;humidity
10530;DHT22;5313;48.834;9.228;2023-01-08T00:00:06;6.10;99.90
10530;DHT22;5313;48.834;9.228;2023-01-08T00:02:32;6.20;99.90
10530;DHT22;5313;48.834;9.228;2023-01-08T00:04:57;6.30;99.90
10530;DHT22;5313;48.834;9.228;2023-01-08T00:07:23;6.30;99.90
10530;DHT22;5313;48.834;9.228;2023-01-08T00:09:48;6.20;99.90
10530;DHT22;5313;48.834;9.228;2023-01-08T00:12:15;6.00;99.90
10530;DHT22;5313;48.834;9.228;2023-01-08T00:14:40;6.40;99.90
10530;DHT22;5313;48.834;9.228;2023-01-08T00:17:06;6.50;99.90
10530;DHT22;5313;48.834;9.228;2023-01-08T00:19:32;6.40;99.90
10530;DHT22;5313;48.834;9.228;2023-01-08T00:21:58;6.20;99.90
10530;DHT22;5313;48.834;9.228;2023-01-08T00:24:23;6.20;99.90
10530;DHT22;5313;48.834;9.228;2023-01-08T00:26:49;6.00;99.90
10530;DHT22;5313;48.834;9.228;2023-01-08T00:29:15;6.00;99.90
10530;DHT22;5313;48.834;9.228;2023-01-08T00:31:40;6.10;99.90
10530;DHT22;5313;48.834;9.228;2023-01-08T00:34:06;6.00;99.90
10530;DHT22;5313;48.834;9.228;2023-01-08T00:36:31;6.00;99.90
10530;DHT22;5313;48.834;9.228;2023-01-08T00:38:58;6.00;99.90
10530;DHT22;5313;48.834;9.228;2023-01-08T00:41:24;6.00;99.90
10530;DHT22;5313;48.834;9.228;2023-01-08T00:43:50;6.00;99.90
10530;DHT22;5313;48.834;9.228;2023-01-08T00:46:15;6.00;99.90
10530;DHT22;5313;48.834;9.228;2023-01-08T00:48:41;5.90;99.90
10530;DHT22;5313;48.834;9.228;2023-01-08T00:51:07;5.90;99.90
10530;DHT22;5313;48.834;9.228;2023-01-08T00:53:33;6.10;99.90
10530;DHT22;5313;48.834;9.228;2023-01-08T00:56:05;6.00;99.90
10530;DHT22;5313;48.834;9.228;2023-01-08T00:58:31;6.10;99.90
10530;DHT22;5313;48.834;9.228;2023-01-08T01:00:57;6.10;99.90
10530;DHT22;5313;48.834;9.228;2023-01-08T01:03:22;6.00;99.90
10530;DHT22;5313;48.834;9.228;2023-01-08T01:05:48;5.90;99.90
10530;DHT22;5313;48.834;9.228;2023-01-08T01:08:14;5.80;99.90
10530;DHT22;5313;48.834;9.228;2023-01-08T01:10:40;5.80;99.90
10530;DHT22;5313;48.834;9.228;2023-01-08T01:13:05;5.90;99.90
10530;DHT22;5313;48.834;9.228;2023-01-08T01:15:31;5.80;99.90
10530;DHT22;5313;48.834;9.228;2023-01-08T01:17:56;5.80;99.90
10530;DHT22;5313;48.834;9.228;2023-01-08T01:20:22;5.70;99.90
10530;DHT22;5313;48.834;9.228;2023-01-08T01:22:48;5.70;99.90
10530;DHT22;5313;48.834;9.228;2023-01-08T01:25:13;5.70;99.90
10530;DHT22;5313;48.834;9.228;2023-01-08T01:27:39;5.70;99.90
10530;DHT22;5313;48.834;9.228;2023-01-08T01:30:05;5.70;99.90
10530;DHT22;5313;48.834;9.228;2023-01-08T01:32:31;5.70;99.90
10530;DHT22;5313;48.834;9.228;2023-01-08T01:34:56;5.80;99.90
10530;DHT22;5313;48.834;9.228;2023-01-08T01:37:22;5.80;99.90
10530;DHT22;5313;48.834;9.228;2023-01-08T01:39:47;5.70;99.90
10530;DHT22;5313;48.834;9.228;2023-01-08T01:42:15;5.70;99.90
10530;DHT22;5313;48.834;9.228;2023-01-08T01:45:02;5.60;99.90
10530;DHT22;5313;48.834;9.228;2023-01-08T01:47:39;5.70;99.90
10530;DHT22;5313;48.834;9.228;2023-01-08T01:50:29;5.70;99.90
10530;DHT22;5313;48.834;9.228;2023-01-08T01:53:02;5.70;99.90
10530;DHT22;5313;48.834;9.228;2023-01-08T01:55:29;5.70;99.90
10530;DHT22;5313;48.834;9.228;2023-01-08T01:58:12;5.70;99.90
10530;DHT22;5313;48.834;9.228;2023-01-08T02:00:38;5.70;99.90
10530;DHT22;5313;48.834;9.228;2023-01-08T02:03:04;5.70;99.90
10530;DHT22;5313;48.834;9.228;2023-01-08T02:08:32;5.70;99.90
10530;DHT22;5313;48.834;9.228;2023-01-08T02:11:13;5.70;99.90
10530;DHT22;5313;48.834;9.228;2023-01-08T02:13:45;5.60;99.90
10530;DHT22;5313;48.834;9.228;2023-01-08T02:16:39;5.50;99.90
10530;DHT22;5313;48.834;9.228;2023-01-08T02:19:33;5.60;99.90
10530;DHT22;5313;48.834;9.228;2023-01-08T02:25:20;5.60;99.90
10530;DHT22;5313;48.834;9.228;2023-01-08T02:27:49;5.60;99.90
10530;DHT22;5313;48.834;9.228;2023-01-08T02:30:16;5.60;99.90
10530;DHT22;5313;48.834;9.228;2023-01-08T02:32:43;5.70;99.90
10530;DHT22;5313;48.834;9.228;2023-01-08T02:35:09;5.70;99.90
10530;DHT22;5313;48.834;9.228;2023-01-08T02:37:36;5.80;99.90
10530;DHT22;5313;48.834;9.228;2023-01-08T02:42:58;6.00;99.90
10530;DHT22;5313;48.834;9.228;2023-01-08T02:51:01;6.60;99.90
10530;DHT22;5313;48.834;9.228;2023-01-08T02:53:32;6.70;99.90
10530;DHT22;5313;48.834;9.228;2023-01-08T02:56:02;6.80;99.90
10530;DHT22;5313;48.834;9.228;2023-01-08T02:58:31;6.80;99.90
10530;DHT22;5313;48.834;9.228;2023-01-08T03:01:01;6.80;99.90
10530;DHT22;5313;48.834;9.228;2023-01-08T03:03:28;6.80;99.90
10530;DHT22;5313;48.834;9.228;2023-01-08T03:05:58;6.80;99.90
10530;DHT22;5313;48.834;9.228;2023-01-08T03:08:24;6.80;99.90
10530;DHT22;5313;48.834;9.228;2023-01-08T03:11:17;6.80;99.90
10530;DHT22;5313;48.834;9.228;2023-01-08T03:13:56;6.80;99.90
10530;DHT22;5313;48.834;9.228;2023-01-08T03:16:35;6.80;99.90
10530;DHT22;5313;48.834;9.228;2023-01-08T03:19:22;6.80;99.90
10530;DHT22;5313;48.834;9.228;2023-01-08T03:21:51;6.80;99.90
10530;DHT22;5313;48.834;9.228;2023-01-08T03:24:21;6.80;99.90
10530;DHT22;5313;48.834;9.228;2023-01-08T03:26:49;6.90;99.90
10530;DHT22;5313;48.834;9.228;2023-01-08T03:29:18;6.90;99.90
10530;DHT22;5313;48.834;9.228;2023-01-08T03:31:46;6.70;99.90
10530;DHT22;5313;48.834;9.228;2023-01-08T03:34:13;6.50;99.90
10530;DHT22;5313;48.834;9.228;2023-01-08T03:36:43;6.40;99.90
10530;DHT22;5313;48.834;9.228;2023-01-08T03:39:18;6.30;99.90
10530;DHT22;5313;48.834;9.228;2023-01-08T03:41:46;6.30;99.90
10530;DHT22;5313;48.834;9.228;2023-01-08T03:44:13;6.20;99.90
10530;DHT22;5313;48.834;9.228;2023-01-08T03:46:45;6.30;99.90
10530;DHT22;5313;48.834;9.228;2023-01-08T03:49:12;6.20;99.90
10530;DHT22;5313;48.834;9.228;2023-01-08T03:51:40;6.20;99.90
10530;DHT22;5313;48.834;9.228;2023-01-08T03:54:10;6.20;99.90
10530;DHT22;5313;48.834;9.228;2023-01-08T03:56:37;6.20;99.90
10530;DHT22;5313;48.834;9.228;2023-01-08T03:59:02;6.20;99.90
10530;DHT22;5313;48.834;9.228;2023-01-08T04:01:27;6.30;99.90
10530;DHT22;5313;48.834;9.228;2023-01-08T04:03:53;6.30;99.90
10530;DHT22;5313;48.834;9.228;2023-01-08T04:06:18;6.40;99.90
10530;DHT22;5313;48.834;9.228;2023-01-08T04:08:47;6.40;99.90
10530;DHT22;5313;48.834;9.228;2023-01-08T04:11:12;6.40;99.90
10530;DHT22;5313;48.834;9.228;2023-01-08T04:13:38;6.40;99.90
10530;DHT22;5313;48.834;9.228;2023-01-08T04:16:04;6.40;99.90
10530;DHT22;5313;48.834;9.228;2023-01-08T04:18:30;6.40;99.90
10530;DHT22;5313;48.834;9.228;2023-01-08T04:20:56;6.40;99.90
10530;DHT22;5313;48.834;9.228;2023-01-08T04:23:21;6.40;99.90
10530;DHT22;5313;48.834;9.228;2023-01-08T04:25:47;6.50;99.90
10530;DHT22;5313;48.834;9.228;2023-01-08T04:28:12;6.50;99.90
10530;DHT22;5313;48.834;9.228;2023-01-08T04:30:38;6.60;99.90
10530;DHT22;5313;48.834;9.228;2023-01-08T04:33:03;6.50;99.90
10530;DHT22;5313;48.834;9.228;2023-01-08T04:35:29;6.60;99.90
10530;DHT22;5313;48.834;9.228;2023-01-08T04:37:54;6.60;99.90
10530;DHT22;5313;48.834;9.228;2023-01-08T04:40:20;6.60;99.90
10530;DHT22;5313;48.834;9.228;2023-01-08T04:42:45;6.70;99.90
10530;DHT22;5313;48.834;9.228;2023-01-08T04:45:11;6.70;99.90
10530;DHT22;5313;48.834;9.228;2023-01-08T04:47:37;6.70;99.90
10530;DHT22;5313;48.834;9.228;2023-01-08T04:50:03;6.70;99.90
10530;DHT22;5313;48.834;9.228;2023-01-08T04:52:28;6.80;99.90
10530;DHT22;5313;48.834;9.228;2023-01-08T04:54:54;6.90;99.90
10530;DHT22;5313;48.834;9.228;2023-01-08T04:57:19;6.80;99.90
10530;DHT22;5313;48.834;9.228;2023-01-08T04:59:45;6.70;99.90
10530;DHT22;5313;48.834;9.228;2023-01-08T05:02:10;6.70;99.90
10530;DHT22;5313;48.834;9.228;2023-01-08T05:04:36;6.70;99.90
10530;DHT22;5313;48.834;9.228;2023-01-08T05:07:03;6.90;99.90
10530;DHT22;5313;48.834;9.228;2023-01-08T05:09:28;7.10;99.90
10530;DHT22;5313;48.834;9.228;2023-01-08T05:11:54;7.30;99.90
10530;DHT22;5313;48.834;9.228;2023-01-08T05:14:19;7.60;99.90
10530;DHT22;5313;48.834;9.228;2023-01-08T05:16:45;7.90;99.90
10530;DHT22;5313;48.834;9.228;2023-01-08T05:19:11;8.10;99.90
10530;DHT22;5313;48.834;9.228;2023-01-08T05:21:37;8.30;99.90
10530;DHT22;5313;48.834;9.228;2023-01-08T05:24:03;8.40;99.90
10530;DHT22;5313;48.834;9.228;2023-01-08T05:26:28;8.50;99.90
10530;DHT22;5313;48.834;9.228;2023-01-08T05:28:54;8.60;99.90
10530;DHT22;5313;48.834;9.228;2023-01-08T05:31:19;8.80;99.90
10530;DHT22;5313;48.834;9.228;2023-01-08T05:33:45;8.80;99.90
10530;DHT22;5313;48.834;9.228;2023-01-08T05:36:11;8.80;99.90
10530;DHT22;5313;48.834;9.228;2023-01-08T05:38:37;9.00;99.90
10530;DHT22;5313;48.834;9.228;2023-01-08T05:41:04;9.10;99.90
10530;DHT22;5313;48.834;9.228;2023-01-08T05:43:30;9.20;99.90
10530;DHT22;5313;48.834;9.228;2023-01-08T05:45:59;9.30;99.90
10530;DHT22;5313;48.834;9.228;2023-01-08T05:48:27;9.40;99.90
10530;DHT22;5313;48.834;9.228;2023-01-08T05:50:52;9.50;99.90
10530;DHT22;5313;48.834;9.228;2023-01-08T05:53:18;9.60;99.90
10530;DHT22;5313;48.834;9.228;2023-01-08T05:55:44;9.60;99.90
10530;DHT22;5313;48.834;9.228;2023-01-08T05:58:09;9.50;99.90
10530;DHT22;5313;48.834;9.228;2023-01-08T06:00:37;9.50;99.90
10530;DHT22;5313;48.834;9.228;2023-01-08T06:03:03;9.40;99.90
10530;DHT22;5313;48.834;9.228;2023-01-08T06:05:31;9.30;99.90
10530;DHT22;5313;48.834;9.228;2023-01-08T06:07:58;9.30;99.90
10530;DHT22;5313;48.834;9.228;2023-01-08T06:10:24;9.20;99.90
10530;DHT22;5313;48.834;9.228;2023-01-08T06:12:49;9.10;99.90
10530;DHT22;5313;48.834;9.228;2023-01-08T06:15:15;9.10;99.90
10530;DHT22;5313;48.834;9.228;2023-01-08T06:17:41;9.10;99.90
10530;DHT22;5313;48.834;9.228;2023-01-08T06:20:07;9.00;99.90
10530;DHT22;5313;48.834;9.228;2023-01-08T06:22:33;9.00;99.90
10530;DHT22;5313;48.834;9.228;2023-01-08T06:24:58;9.00;99.90
10530;DHT22;5313;48.834;9.228;2023-01-08T06:27:24;9.00;99.90
10530;DHT22;5313;48.834;9.228;2023-01-08T06:29:49;9.00;99.90
10530;DHT22;5313;48.834;9.228;2023-01-08T06:32:15;12.20;99.90
10530;DHT22;5313;48.834;9.228;2023-01-08T06:34:40;8.90;99.90
10530;DHT22;5313;48.834;9.228;2023-01-08T06:37:06;8.90;99.90
10530;DHT22;5313;48.834;9.228;2023-01-08T06:39:31;8.90;99.90
10530;DHT22;5313;48.834;9.228;2023-01-08T06:41:57;8.90;99.90
10530;DHT22;5313;48.834;9.228;2023-01-08T06:44:23;8.30;99.90
10530;DHT22;5313;48.834;9.228;2023-01-08T06:46:49;9.00;99.90
10530;DHT22;5313;48.834;9.228;2023-01-08T06:49:15;9.00;99.90
10530;DHT22;5313;48.834;9.228;2023-01-08T06:51:42;9.00;99.90
10530;DHT22;5313;48.834;9.228;2023-01-08T06:54:07;9.00;99.90
10530;DHT22;5313;48.834;9.228;2023-01-08T06:56:33;8.90;99.90
10530;DHT22;5313;48.834;9.228;2023-01-08T06:58:59;9.00;99.90
10530;DHT22;5313;48.834;9.228;2023-01-08T07:01:24;9.00;99.90
10530;DHT22;5313;48.834;9.228;2023-01-08T07:03:50;9.00;99.90
10530;DHT22;5313;48.834;9.228;2023-01-08T07:06:18;9.10;99.90
10530;DHT22;5313;48.834;9.228;2023-01-08T07:08:44;9.20;99.90
10530;DHT22;5313;48.834;9.228;2023-01-08T07:11:10;9.30;99.90
10530;DHT22;5313;48.834;9.228;2023-01-08T07:13:36;9.30;99.90
10530;DHT22;5313;48.834;9.228;2023-01-08T07:16:10;9.40;99.90
10530;DHT22;5313;48.834;9.228;2023-01-08T07:18:36;9.40;99.90
10530;DHT22;5313;48.834;9.228;2023-01-08T07:21:04;9.30;99.90
10530;DHT22;5313;48.834;9.228;2023-01-08T07:23:29;9.30;99.90
10530;DHT22;5313;48.834;9.228;2023-01-08T07:25:59;9.30;99.90
10530;DHT22;5313;48.834;9.228;2023-01-08T07:28:25;9.30;99.90
10530;DHT22;5313;48.834;9.228;2023-01-08T07:30:50;9.30;99.90
10530;DHT22;5313;48.834;9.228;2023-01-08T07:33:16;9.20;99.90
10530;DHT22;5313;48.834;9.228;2023-01-08T07:35:41;9.10;99.90
10530;DHT22;5313;48.834;9.228;2023-01-08T07:38:07;9.10;99.90
10530;DHT22;5313;48.834;9.228;2023-01-08T07:40:32;9.00;99.90
10530;DHT22;5313;48.834;9.228;2023-01-08T07:42:59;8.90;99.90
10530;DHT22;5313;48.834;9.228;2023-01-08T07:45:26;8.90;99.90
10530;DHT22;5313;48.834;9.228;2023-01-08T07:47:51;8.80;99.90
10530;DHT22;5313;48.834;9.228;2023-01-08T07:50:17;8.80;99.90
10530;DHT22;5313;48.834;9.228;2023-01-08T07:52:42;8.70;99.90
10530;DHT22;5313;48.834;9.228;2023-01-08T07:55:08;8.70;99.90
10530;DHT22;5313;48.834;9.228;2023-01-08T07:57:34;8.70;99.90
10530;DHT22;5313;48.834;9.228;2023-01-08T07:59:59;8.80;99.90
10530;DHT22;5313;48.834;9.228;2023-01-08T08:02:25;8.70;99.90
10530;DHT22;5313;48.834;9.228;2023-01-08T08:04:50;8.70;99.90
10530;DHT22;5313;48.834;9.228;2023-01-08T08:07:16;8.80;99.90
10530;DHT22;5313;48.834;9.228;2023-01-08T08:09:41;8.80;99.90
10530;DHT22;5313;48.834;9.228;2023-01-08T08:12:07;8.90;99.90
10530;DHT22;5313;48.834;9.228;2023-01-08T08:14:33;8.90;99.90
10530;DHT22;5313;48.834;9.228;2023-01-08T08:16:59;8.80;99.90
10530;DHT22;5313;48.834;9.228;2023-01-08T08:19:25;8.80;99.90
10530;DHT22;5313;48.834;9.228;2023-01-08T08:21:50;8.80;99.90
10530;DHT22;5313;48.834;9.228;2023-01-08T08:24:16;8.80;99.90
10530;DHT22;5313;48.834;9.228;2023-01-08T08:26:41;8.80;99.90
10530;DHT22;5313;48.834;9.228;2023-01-08T08:29:07;8.80;99.90
10530;DHT22;5313;48.834;9.228;2023-01-08T08:31:32;8.80;99.90
10530;DHT22;5313;48.834;9.228;2023-01-08T08:33:58;8.80;99.90
10530;DHT22;5313;48.834;9.228;2023-01-08T08:36:28;8.80;99.90
10530;DHT22;5313;48.834;9.228;2023-01-08T08:38:53;8.70;99.90
10530;DHT22;5313;48.834;9.228;2023-01-08T08:41:19;8.70;99.90
10530;DHT22;5313;48.834;9.228;2023-01-08T08:43:44;8.70;99.90
10530;DHT22;5313;48.834;9.228;2023-01-08T08:46:10;8.70;99.90
10530;DHT22;5313;48.834;9.228;2023-01-08T08:48:35;8.70;99.90
10530;DHT22;5313;48.834;9.228;2023-01-08T08:51:02;8.70;99.90
10530;DHT22;5313;48.834;9.228;2023-01-08T08:53:28;8.70;99.90
10530;DHT22;5313;48.834;9.228;2023-01-08T08:55:53;8.70;99.90
10530;DHT22;5313;48.834;9.228;2023-01-08T08:58:19;8.70;99.90
10530;DHT22;5313;48.834;9.228;2023-01-08T09:00:44;8.70;99.90
10530;DHT22;5313;48.834;9.228;2023-01-08T09:03:12;8.70;99.90
10530;DHT22;5313;48.834;9.228;2023-01-08T09:05:39;8.70;99.90
10530;DHT22;5313;48.834;9.228;2023-01-08T09:08:04;8.60;99.90
10530;DHT22;5313;48.834;9.228;2023-01-08T09:10:30;8.70;99.90
10530;DHT22;5313;48.834;9.228;2023-01-08T09:12:55;8.70;99.90
10530;DHT22;5313;48.834;9.228;2023-01-08T09:15:21;8.80;99.90
10530;DHT22;5313;48.834;9.228;2023-01-08T09:17:57;8.80;99.90
10530;DHT22;5313;48.834;9.228;2023-01-08T09:20:24;8.70;99.90
10530;DHT22;5313;48.834;9.228;2023-01-08T09:22:50;8.90;99.90
10530;DHT22;5313;48.834;9.228;2023-01-08T09:25:16;8.90;99.90
10530;DHT22;5313;48.834;9.228;2023-01-08T09:27:42;8.90;99.90
10530;DHT22;5313;48.834;9.228;2023-01-08T09:30:08;9.00;99.90
10530;DHT22;5313;48.834;9.228;2023-01-08T09:32:33;9.10;99.90
10530;DHT22;5313;48.834;9.228;2023-01-08T09:34:59;9.10;99.90
10530;DHT22;5313;48.834;9.228;2023-01-08T09:37:24;9.10;99.90
10530;DHT22;5313;48.834;9.228;2023-01-08T09:39:50;9.20;99.90
10530;DHT22;5313;48.834;9.228;2023-01-08T09:42:20;9.20;99.90
10530;DHT22;5313;48.834;9.228;2023-01-08T09:44:48;9.20;99.90
10530;DHT22;5313;48.834;9.228;2023-01-08T09:47:37;9.20;99.90
10530;DHT22;5313;48.834;9.228;2023-01-08T09:50:06;9.20;99.90
10530;DHT22;5313;48.834;9.228;2023-01-08T09:52:35;9.30;99.90
10530;DHT22;5313;48.834;9.228;2023-01-08T09:55:02;9.30;99.90
10530;DHT22;5313;48.834;9.228;2023-01-08T09:57:28;9.30;99.90
10530;DHT22;5313;48.834;9.228;2023-01-08T09:59:53;9.30;99.90
10530;DHT22;5313;48.834;9.228;2023-01-08T10:02:22;9.40;99.90
10530;DHT22;5313;48.834;9.228;2023-01-08T10:04:53;9.40;99.90
10530;DHT22;5313;48.834;9.228;2023-01-08T10:07:21;9.40;99.90
10530;DHT22;5313;48.834;9.228;2023-01-08T10:09:49;9.40;99.90
10530;DHT22;5313;48.834;9.228;2023-01-08T10:12:21;9.50;99.90
10530;DHT22;5313;48.834;9.228;2023-01-08T10:14:48;9.50;99.90
10530;DHT22;5313;48.834;9.228;2023-01-08T10:17:36;9.50;99.90
10530;DHT22;5313;48.834;9.228;2023-01-08T10:22:36;9.60;99.90
10530;DHT22;5313;48.834;9.228;2023-01-08T10:25:05;9.60;99.90
10530;DHT22;5313;48.834;9.228;2023-01-08T10:27:31;9.70;99.90
10530;DHT22;5313;48.834;9.228;2023-01-08T10:30:05;9.60;99.90
10530;DHT22;5313;48.834;9.228;2023-01-08T10:32:33;9.70;99.90
10530;DHT22;5313;48.834;9.228;2023-01-08T10:35:05;9.70;99.90
10530;DHT22;5313;48.834;9.228;2023-01-08T10:37:37;9.80;99.90
10530;DHT22;5313;48.834;9.228;2023-01-08T10:43:27;9.80;99.90
10530;DHT22;5313;48.834;9.228;2023-01-08T10:45:59;9.80;99.90
10530;DHT22;5313;48.834;9.228;2023-01-08T10:48:35;9.90;99.90
10530;DHT22;5313;48.834;9.228;2023-01-08T10:51:06;9.90;99.90
10530;DHT22;5313;48.834;9.228;2023-01-08T10:53:37;9.90;99.90
10530;DHT22;5313;48.834;9.228;2023-01-08T10:56:04;9.90;99.90
10530;DHT22;5313;48.834;9.228;2023-01-08T10:58:40;9.90;99.90
10530;DHT22;5313;48.834;9.228;2023-01-08T11:01:21;9.90;99.90
10530;DHT22;5313;48.834;9.228;2023-01-08T11:03:49;10.00;99.90
10530;DHT22;5313;48.834;9.228;2023-01-08T11:06:30;9.60;99.90
10530;DHT22;5313;48.834;9.228;2023-01-08T11:09:01;10.00;99.90
10530;DHT22;5313;48.834;9.228;2023-01-08T11:11:35;10.10;99.90
10530;DHT22;5313;48.834;9.228;2023-01-08T11:14:12;10.10;99.90
10530;DHT22;5313;48.834;9.228;2023-01-08T11:16:40;10.20;99.90
10530;DHT22;5313;48.834;9.228;2023-01-08T11:19:28;10.20;99.90
10530;DHT22;5313;48.834;9.228;2023-01-08T11:21:56;10.20;99.90
10530;DHT22;5313;48.834;9.228;2023-01-08T11:24:31;10.30;99.90
10530;DHT22;5313;48.834;9.228;2023-01-08T11:37:54;10.40;99.90
10530;DHT22;5313;48.834;9.228;2023-01-08T11:43:45;10.40;99.90
10530;DHT22;5313;48.834;9.228;2023-01-08T11:46:24;10.40;99.90
10530;DHT22;5313;48.834;9.228;2023-01-08T11:49:20;10.50;99.90
10530;DHT22;5313;48.834;9.228;2023-01-08T11:55:28;10.60;99.90
10530;DHT22;5313;48.834;9.228;2023-01-08T12:09:17;10.50;99.90
10530;DHT22;5313;48.834;9.228;2023-01-08T12:11:50;10.50;99.90
10530;DHT22;5313;48.834;9.228;2023-01-08T12:14:48;10.40;99.90
10530;DHT22;5313;48.834;9.228;2023-01-08T12:20:28;10.40;99.90
10530;DHT22;5313;48.834;9.228;2023-01-08T12:34:14;10.50;99.90
10530;DHT22;5313;48.834;9.228;2023-01-08T12:36:45;10.50;99.90
10530;DHT22;5313;48.834;9.228;2023-01-08T12:39:20;10.40;99.90
10530;DHT22;5313;48.834;9.228;2023-01-08T12:41:48;10.50;99.90
10530;DHT22;5313;48.834;9.228;2023-01-08T12:44:25;10.40;99.90
10530;DHT22;5313;48.834;9.228;2023-01-08T12:46:54;10.50;99.90
10530;DHT22;5313;48.834;9.228;2023-01-08T12:49:34;10.50;99.90
10530;DHT22;5313;48.834;9.228;2023-01-08T12:52:18;10.50;99.90
10530;DHT22;5313;48.834;9.228;2023-01-08T13:00:05;10.60;99.90
10530;DHT22;5313;48.834;9.228;2023-01-08T13:02:48;10.60;99.90
10530;DHT22;5313;48.834;9.228;2023-01-08T13:07:46;10.60;99.90
10530;DHT22;5313;48.834;9.228;2023-01-08T13:10:38;10.60;99.90
10530;DHT22;5313;48.834;9.228;2023-01-08T13:13:06;10.60;99.90
10530;DHT22;5313;48.834;9.228;2023-01-08T13:15:33;10.60;99.90
10530;DHT22;5313;48.834;9.228;2023-01-08T13:18:18;10.60;99.90
10530;DHT22;5313;48.834;9.228;2023-01-08T13:20:58;10.60;99.90
10530;DHT22;5313;48.834;9.228;2023-01-08T13:23:27;10.60;99.90
10530;DHT22;5313;48.834;9.228;2023-01-08T13:25:55;10.50;99.90
10530;DHT22;5313;48.834;9.228;2023-01-08T13:30:51;10.60;99.90
10530;DHT22;5313;48.834;9.228;2023-01-08T13:38:43;10.60;99.90
10530;DHT22;5313;48.834;9.228;2023-01-08T13:41:27;10.60;99.90
10530;DHT22;5313;48.834;9.228;2023-01-08T13:44:04;10.60;99.90
10530;DHT22;5313;48.834;9.228;2023-01-08T13:46:33;10.60;99.90
10530;DHT22;5313;48.834;9.228;2023-01-08T13:49:04;10.60;99.90
10530;DHT22;5313;48.834;9.228;2023-01-08T13:51:42;10.60;99.90
10530;DHT22;5313;48.834;9.228;2023-01-08T13:56:37;10.70;99.90
10530;DHT22;5313;48.834;9.228;2023-01-08T13:59:03;10.70;99.90
10530;DHT22;5313;48.834;9.228;2023-01-08T14:01:32;10.80;99.90
10530;DHT22;5313;48.834;9.228;2023-01-08T14:03:58;10.80;99.90
10530;DHT22;5313;48.834;9.228;2023-01-08T14:06:25;10.90;99.90
10530;DHT22;5313;48.834;9.228;2023-01-08T14:08:56;11.00;99.90
10530;DHT22;5313;48.834;9.228;2023-01-08T14:14:04;11.50;99.90
10530;DHT22;5313;48.834;9.228;2023-01-08T14:16:31;11.60;99.90
10530;DHT22;5313;48.834;9.228;2023-01-08T14:19:00;11.60;99.90
10530;DHT22;5313;48.834;9.228;2023-01-08T14:21:26;11.60;99.90
10530;DHT22;5313;48.834;9.228;2023-01-08T14:23:52;11.50;99.90
10530;DHT22;5313;48.834;9.228;2023-01-08T14:28:54;11.30;99.90
10530;DHT22;5313;48.834;9.228;2023-01-08T14:31:25;11.30;99.90
10530;DHT22;5313;48.834;9.228;2023-01-08T14:33:52;11.20;99.90
10530;DHT22;5313;48.834;9.228;2023-01-08T14:36:19;11.20;99.90
10530;DHT22;5313;48.834;9.228;2023-01-08T14:38:45;11.20;99.90
10530;DHT22;5313;48.834;9.228;2023-01-08T14:43:45;11.10;99.90
10530;DHT22;5313;48.834;9.228;2023-01-08T14:46:23;11.10;99.90
10530;DHT22;5313;48.834;9.228;2023-01-08T14:48:51;11.10;99.90
10530;DHT22;5313;48.834;9.228;2023-01-08T14:51:26;11.10;99.90
10530;DHT22;5313;48.834;9.228;2023-01-08T14:53:55;11.10;99.90
10530;DHT22;5313;48.834;9.228;2023-01-08T14:56:26;11.10;99.90
10530;DHT22;5313;48.834;9.228;2023-01-08T14:58:53;11.00;99.90
10530;DHT22;5313;48.834;9.228;2023-01-08T15:01:28;11.00;99.90
10530;DHT22;5313;48.834;9.228;2023-01-08T15:06:32;11.00;99.90
10530;DHT22;5313;48.834;9.228;2023-01-08T15:08:58;11.00;99.90
10530;DHT22;5313;48.834;9.228;2023-01-08T15:11:26;11.00;99.90
10530;DHT22;5313;48.834;9.228;2023-01-08T15:13:53;11.00;99.90
10530;DHT22;5313;48.834;9.228;2023-01-08T15:16:33;11.00;99.90
10530;DHT22;5313;48.834;9.228;2023-01-08T15:19:12;11.00;99.90
10530;DHT22;5313;48.834;9.228;2023-01-08T15:21:45;11.00;99.90
10530;DHT22;5313;48.834;9.228;2023-01-08T15:24:26;10.90;99.90
10530;DHT22;5313;48.834;9.228;2023-01-08T15:26:53;10.90;99.90
10530;DHT22;5313;48.834;9.228;2023-01-08T15:29:30;10.80;99.90
10530;DHT22;5313;48.834;9.228;2023-01-08T15:32:20;10.80;99.90
10530;DHT22;5313;48.834;9.228;2023-01-08T15:34:45;10.80;99.90
10530;DHT22;5313;48.834;9.228;2023-01-08T15:37:13;10.70;99.90
10530;DHT22;5313;48.834;9.228;2023-01-08T15:39:39;10.60;99.90
10530;DHT22;5313;48.834;9.228;2023-01-08T15:45:01;10.50;99.90
10530;DHT22;5313;48.834;9.228;2023-01-08T15:47:27;10.40;99.90
10530;DHT22;5313;48.834;9.228;2023-01-08T15:49:52;10.30;99.90
10530;DHT22;5313;48.834;9.228;2023-01-08T15:52:22;10.20;99.90
10530;DHT22;5313;48.834;9.228;2023-01-08T15:54:48;10.30;99.90
10530;DHT22;5313;48.834;9.228;2023-01-08T15:57:14;10.20;99.90
10530;DHT22;5313;48.834;9.228;2023-01-08T15:59:40;10.20;99.90
10530;DHT22;5313;48.834;9.228;2023-01-08T16:02:05;10.20;99.90
10530;DHT22;5313;48.834;9.228;2023-01-08T16:04:31;10.20;99.90
10530;DHT22;5313;48.834;9.228;2023-01-08T16:06:56;10.20;99.90
10530;DHT22;5313;48.834;9.228;2023-01-08T16:09:22;10.20;99.90
10530;DHT22;5313;48.834;9.228;2023-01-08T16:11:47;10.30;99.90
10530;DHT22;5313;48.834;9.228;2023-01-08T16:14:14;10.20;99.90
10530;DHT22;5313;48.834;9.228;2023-01-08T16:16:39;10.30;99.90
10530;DHT22;5313;48.834;9.228;2023-01-08T16:19:05;10.30;99.90
10530;DHT22;5313;48.834;9.228;2023-01-08T16:21:30;10.30;99.90
10530;DHT22;5313;48.834;9.228;2023-01-08T16:23:56;10.30;99.90
10530;DHT22;5313;48.834;9.228;2023-01-08T16:26:22;10.30;99.90
10530;DHT22;5313;48.834;9.228;2023-01-08T16:28:47;10.30;99.90
10530;DHT22;5313;48.834;9.228;2023-01-08T16:31:12;10.30;99.90
10530;DHT22;5313;48.834;9.228;2023-01-08T16:33:38;10.30;99.90
10530;DHT22;5313;48.834;9.228;2023-01-08T16:36:06;10.30;99.90
10530;DHT22;5313;48.834;9.228;2023-01-08T16:38:32;10.30;99.90
10530;DHT22;5313;48.834;9.228;2023-01-08T16:40:58;10.40;99.90
10530;DHT22;5313;48.834;9.228;2023-01-08T16:43:25;10.30;99.90
10530;DHT22;5313;48.834;9.228;2023-01-08T16:45:52;10.30;99.90
10530;DHT22;5313;48.834;9.228;2023-01-08T16:48:18;10.30;99.90
10530;DHT22;5313;48.834;9.228;2023-01-08T16:50:44;10.20;99.90
10530;DHT22;5313;48.834;9.228;2023-01-08T16:53:10;10.20;99.90
10530;DHT22;5313;48.834;9.228;2023-01-08T16:55:37;10.30;99.90
10530;DHT22;5313;48.834;9.228;2023-01-08T16:58:03;10.30;99.90
10530;DHT22;5313;48.834;9.228;2023-01-08T17:00:30;10.20;99.90
10530;DHT22;5313;48.834;9.228;2023-01-08T17:02:56;10.10;99.90
10530;DHT22;5313;48.834;9.228;2023-01-08T17:05:22;10.10;99.90
10530;DHT22;5313;48.834;9.228;2023-01-08T17:07:52;10.20;99.90
10530;DHT22;5313;48.834;9.228;2023-01-08T17:10:18;10.20;99.90
10530;DHT22;5313;48.834;9.228;2023-01-08T17:12:44;10.20;99.90
10530;DHT22;5313;48.834;9.228;2023-01-08T17:15:09;10.30;99.90
10530;DHT22;5313;48.834;9.228;2023-01-08T17:17:35;10.20;99.90
10530;DHT22;5313;48.834;9.228;2023-01-08T17:20:01;10.20;99.90
10530;DHT22;5313;48.834;9.228;2023-01-08T17:22:27;10.20;99.90
10530;DHT22;5313;48.834;9.228;2023-01-08T17:24:53;10.20;99.90
10530;DHT22;5313;48.834;9.228;2023-01-08T17:27:18;10.20;99.90
10530;DHT22;5313;48.834;9.228;2023-01-08T17:29:44;10.20;99.90
10530;DHT22;5313;48.834;9.228;2023-01-08T17:32:09;10.20;99.90
10530;DHT22;5313;48.834;9.228;2023-01-08T17:34:36;10.20;99.90
10530;DHT22;5313;48.834;9.228;2023-01-08T17:37:02;10.20;99.90
10530;DHT22;5313;48.834;9.228;2023-01-08T17:39:27;10.20;99.90